Time;durP1;ratioP1;P1;durP2;ratioP2;P2;SDS_P1;SDS_P2;PMS_P1;PMS_P2;Temp;Humidity;BMP_temperature;BMP_pressure;BME280_temperature;BME280_humidity;BME280_pressure;Samples;Min_cycle;Max_cycle;Signal;HPM_P1;HPM_P2
2022/04/16 00:00:54;;;;;;;;;;;13.10;92.50;;;;;;4984907;28;19930;-78
2022/04/16 00:03:22;;;;;;;;;;;13.00;92.50;;;;;;4969549;28;19926;-79
2022/04/16 00:05:51;;;;;;;;;;;13.00;92.50;;;;;;4995984;28;19933;-79
2022/04/16 00:08:20;;;;;;;;;;;13.00;92.50;;;;;;4977224;28;20025;-78
2022/04/16 00:10:48;;;;;;;;;;;12.90;92.40;;;;;;4993416;28;19932;-79
2022/04/16 00:13:16;;;;;;;;;;;12.90;92.90;;;;;;4991338;28;19976;-79
2022/04/16 00:15:43;;;;;;;;;;;12.90;92.50;;;;;;4988189;28;19949;-78
2022/04/16 00:18:11;;;;;;;;;;;12.80;92.50;;;;;;4993427;28;19930;-78
2022/04/16 00:20:39;;;;;;;;;;;12.80;92.40;;;;;;4994370;28;19926;-78
2022/04/16 00:23:06;;;;;;;;;;;12.80;92.40;;;;;;4993944;28;19925;-79
2022/04/16 00:25:35;;;;;;;;;;;12.80;92.40;;;;;;4996674;28;19937;-78
2022/04/16 00:28:02;;;;;;;;;;;12.70;92.30;;;;;;4991185;28;20009;-79
2022/04/16 00:30:35;;;;;;;;;;;12.70;92.30;;;;;;4993288;28;19981;-78
2022/04/16 00:33:02;;;;;;;;;;;12.70;92.40;;;;;;4996681;28;19950;-78
2022/04/16 00:35:29;;;;;;;;;;;12.70;92.30;;;;;;4996043;28;19980;-78
2022/04/16 00:37:56;;;;;;;;;;;12.60;92.30;;;;;;4973589;28;19957;-78
2022/04/16 00:40:23;;;;;;;;;;;12.60;92.30;;;;;;5002024;23;20028;-74
2022/04/16 00:42:51;;;;;;;;;;;12.60;92.30;;;;;;5002973;28;19926;-75
2022/04/16 00:45:18;;;;;;;;;;;12.50;92.30;;;;;;5003859;28;19937;-75
2022/04/16 00:47:45;;;;;;;;;;;12.50;92.30;;;;;;4998042;28;19937;-74
2022/04/16 00:50:13;;;;;;;;;;;12.50;92.30;;;;;;4999454;28;20412;-74
2022/04/16 00:52:40;;;;;;;;;;;12.50;92.30;;;;;;5002448;28;19936;-75
2022/04/16 00:55:08;;;;;;;;;;;12.40;92.30;;;;;;4986104;28;19934;-75
2022/04/16 00:57:36;;;;;;;;;;;12.40;92.30;;;;;;5000760;28;20009;-75
2022/04/16 01:00:05;;;;;;;;;;;12.40;92.30;;;;;;5005180;28;19932;-75
2022/04/16 01:02:33;;;;;;;;;;;12.30;92.30;;;;;;4998015;28;19933;-75
2022/04/16 01:05:00;;;;;;;;;;;12.30;92.30;;;;;;5003318;28;19979;-74
2022/04/16 01:07:27;;;;;;;;;;;12.30;92.30;;;;;;5005477;28;19968;-75
2022/04/16 01:09:54;;;;;;;;;;;12.20;92.30;;;;;;4988645;28;19925;-75
2022/04/16 01:12:21;;;;;;;;;;;12.20;92.30;;;;;;4996763;28;20407;-75
2022/04/16 01:14:49;;;;;;;;;;;12.20;92.20;;;;;;5002152;28;19929;-74
2022/04/16 01:17:17;;;;;;;;;;;12.20;92.20;;;;;;5001582;28;19925;-75
2022/04/16 01:19:44;;;;;;;;;;;12.20;92.20;;;;;;4999578;28;19925;-74
2022/04/16 01:22:12;;;;;;;;;;;12.10;92.20;;;;;;5002172;28;19949;-74
2022/04/16 01:24:43;;;;;;;;;;;12.10;92.20;;;;;;4996571;28;19940;-73
2022/04/16 01:27:10;;;;;;;;;;;12.10;92.20;;;;;;4995307;28;20016;-75
2022/04/16 01:29:37;;;;;;;;;;;12.10;92.30;;;;;;4978638;28;19933;-76
2022/04/16 01:32:05;;;;;;;;;;;12.00;92.20;;;;;;5007796;28;19972;-75
2022/04/16 01:34:32;;;;;;;;;;;12.00;92.20;;;;;;5001254;28;19926;-75
2022/04/16 01:37:02;;;;;;;;;;;12.00;92.20;;;;;;5000695;28;19925;-75
2022/04/16 01:39:29;;;;;;;;;;;11.90;92.20;;;;;;4987514;28;19976;-75
2022/04/16 01:41:58;;;;;;;;;;;11.90;92.20;;;;;;5000941;28;20437;-75
2022/04/16 01:44:25;;;;;;;;;;;11.90;92.20;;;;;;5006272;28;20342;-75
2022/04/16 01:46:52;;;;;;;;;;;11.80;92.20;;;;;;5001935;28;19956;-74
2022/04/16 01:49:20;;;;;;;;;;;11.80;92.20;;;;;;5000667;28;19930;-73
2022/04/16 01:51:48;;;;;;;;;;;11.80;92.20;;;;;;4997463;28;19942;-75
2022/04/16 01:54:15;;;;;;;;;;;11.70;92.20;;;;;;5004588;28;20023;-75
2022/04/16 01:56:42;;;;;;;;;;;11.70;92.20;;;;;;5004944;28;19932;-75
2022/04/16 01:59:11;;;;;;;;;;;11.70;92.20;;;;;;5001378;28;20352;-75
2022/04/16 02:01:38;;;;;;;;;;;11.70;92.20;;;;;;5002146;28;19956;-75
2022/04/16 02:04:05;;;;;;;;;;;11.60;92.20;;;;;;4983783;28;19988;-75
2022/04/16 02:06:32;;;;;;;;;;;11.60;92.20;;;;;;5002242;28;19925;-75
2022/04/16 02:08:59;;;;;;;;;;;11.60;92.20;;;;;;5000731;28;20012;-74
2022/04/16 02:11:26;;;;;;;;;;;11.60;92.20;;;;;;4988456;28;19971;-75
2022/04/16 02:13:53;;;;;;;;;;;11.60;92.20;;;;;;4994719;28;19941;-74
2022/04/16 02:16:21;;;;;;;;;;;11.50;92.20;;;;;;4982889;28;21927;-75
2022/04/16 02:18:48;;;;;;;;;;;11.50;92.20;;;;;;5000852;28;19937;-74
2022/04/16 02:21:16;;;;;;;;;;;11.40;92.20;;;;;;5004668;28;19926;-74
2022/04/16 02:23:43;;;;;;;;;;;11.50;92.20;;;;;;5004601;28;19930;-74
2022/04/16 02:26:10;;;;;;;;;;;11.40;92.20;;;;;;5009931;28;20456;-75
2022/04/16 02:28:37;;;;;;;;;;;11.40;92.20;;;;;;5000932;28;19940;-75
2022/04/16 02:31:04;;;;;;;;;;;11.40;92.20;;;;;;5009218;28;20004;-74
2022/04/16 02:33:32;;;;;;;;;;;11.40;92.20;;;;;;5006422;28;19929;-75
2022/04/16 02:36:00;;;;;;;;;;;11.30;92.20;;;;;;5003550;28;20016;-74
2022/04/16 02:38:26;;;;;;;;;;;11.30;92.20;;;;;;5004931;28;19933;-75
2022/04/16 02:40:53;;;;;;;;;;;11.30;92.20;;;;;;5010727;28;19929;-74
2022/04/16 02:43:20;;;;;;;;;;;11.30;92.20;;;;;;4989117;28;19955;-74
2022/04/16 02:48:33;;;;;;;;;;;11.20;92.20;;;;;;5004231;28;19921;-74
2022/04/16 02:51:00;;;;;;;;;;;11.20;92.20;;;;;;5011590;28;19926;-74
2022/04/16 02:53:27;;;;;;;;;;;11.20;92.20;;;;;;5008706;28;19960;-75
2022/04/16 02:55:55;;;;;;;;;;;11.20;92.20;;;;;;5008672;28;19925;-74
2022/04/16 02:58:22;;;;;;;;;;;11.10;92.20;;;;;;5005983;28;19947;-75
2022/04/16 03:00:49;;;;;;;;;;;11.10;92.20;;;;;;5005944;28;19937;-75
2022/04/16 03:03:16;;;;;;;;;;;11.10;92.20;;;;;;5000814;28;19933;-74
2022/04/16 03:05:45;;;;;;;;;;;11.10;92.50;;;;;;5002034;28;19930;-75
2022/04/16 03:08:12;;;;;;;;;;;11.10;92.30;;;;;;5007299;28;19953;-75
2022/04/16 03:10:39;;;;;;;;;;;11.00;92.20;;;;;;5004556;28;20441;-75
2022/04/16 03:13:06;;;;;;;;;;;11.00;92.30;;;;;;5007596;28;19930;-74
2022/04/16 03:18:18;;;;;;;;;;;11.00;92.30;;;;;;5002731;28;19921;-75
2022/04/16 03:20:46;;;;;;;;;;;10.90;92.30;;;;;;5002646;28;19925;-74
2022/04/16 03:23:13;;;;;;;;;;;10.90;92.30;;;;;;5006540;28;21681;-74
2022/04/16 03:25:41;;;;;;;;;;;10.90;92.20;;;;;;5005937;28;19976;-75
2022/04/16 03:28:08;;;;;;;;;;;10.90;92.30;;;;;;5004394;28;19925;-74
2022/04/16 03:30:35;;;;;;;;;;;10.90;92.30;;;;;;5004624;28;19929;-75
2022/04/16 03:35:29;;;;;;;;;;;10.80;92.20;;;;;;4985332;28;20438;-73
2022/04/16 03:37:57;;;;;;;;;;;10.80;92.20;;;;;;4991364;28;19952;-75
2022/04/16 03:40:26;;;;;;;;;;;10.80;92.30;;;;;;4983289;28;19954;-74
2022/04/16 03:42:54;;;;;;;;;;;10.70;92.20;;;;;;4989613;28;19942;-74
2022/04/16 03:45:21;;;;;;;;;;;10.70;92.30;;;;;;4990890;28;20387;-74
2022/04/16 03:47:49;;;;;;;;;;;10.70;92.20;;;;;;4980341;28;19926;-75
2022/04/16 03:50:16;;;;;;;;;;;10.70;92.20;;;;;;4983608;28;19926;-75
2022/04/16 03:52:43;;;;;;;;;;;10.70;92.20;;;;;;4983999;28;20009;-75
2022/04/16 04:00:43;;;;;;;;;;;10.60;92.20;;;;;;4983480;28;19980;-74
2022/04/16 04:03:10;;;;;;;;;;;10.60;92.30;;;;;;4985244;28;19988;-74
2022/04/16 04:05:37;;;;;;;;;;;10.50;92.50;;;;;;4987917;28;19929;-75
2022/04/16 04:08:05;;;;;;;;;;;10.50;92.20;;;;;;4976909;28;20024;-74
2022/04/16 04:10:33;;;;;;;;;;;10.50;92.20;;;;;;4983718;28;20293;-74
2022/04/16 04:13:00;;;;;;;;;;;10.50;92.30;;;;;;4990080;28;19961;-75
2022/04/16 04:15:27;;;;;;;;;;;10.50;92.30;;;;;;4987712;28;19979;-75
2022/04/16 04:17:54;;;;;;;;;;;10.40;92.30;;;;;;4984869;28;19984;-75
2022/04/16 04:20:21;;;;;;;;;;;10.40;92.30;;;;;;4980261;28;19969;-74
2022/04/16 04:22:48;;;;;;;;;;;10.40;92.30;;;;;;4979563;28;20027;-75
2022/04/16 04:25:15;;;;;;;;;;;10.40;92.50;;;;;;4982260;28;20301;-75
2022/04/16 04:27:43;;;;;;;;;;;10.30;92.30;;;;;;4979902;28;19926;-73
2022/04/16 04:30:13;;;;;;;;;;;10.30;92.30;;;;;;4980534;28;20233;-75
2022/04/16 04:32:40;;;;;;;;;;;10.30;92.30;;;;;;4988448;28;19957;-75
2022/04/16 04:35:08;;;;;;;;;;;10.30;92.40;;;;;;4986424;28;19936;-75
2022/04/16 04:37:36;;;;;;;;;;;10.20;92.40;;;;;;4982634;28;20365;-75
2022/04/16 04:40:03;;;;;;;;;;;10.20;92.40;;;;;;4980568;28;19933;-74
2022/04/16 04:42:31;;;;;;;;;;;10.20;92.40;;;;;;4990570;28;20267;-75
2022/04/16 04:45:00;;;;;;;;;;;10.20;92.40;;;;;;4988033;28;19926;-75
2022/04/16 04:47:26;;;;;;;;;;;10.20;92.40;;;;;;4982110;28;20340;-74
2022/04/16 04:49:53;;;;;;;;;;;10.10;92.40;;;;;;4979301;28;19932;-74
2022/04/16 04:52:21;;;;;;;;;;;10.10;92.40;;;;;;4974210;28;20320;-75
2022/04/16 04:54:48;;;;;;;;;;;10.10;92.50;;;;;;4986834;28;19929;-75
2022/04/16 04:57:15;;;;;;;;;;;10.10;92.50;;;;;;4978477;28;19984;-73
2022/04/16 04:59:43;;;;;;;;;;;10.10;92.40;;;;;;4982901;28;19925;-75
2022/04/16 05:02:11;;;;;;;;;;;10.10;92.50;;;;;;4983814;28;20443;-74
2022/04/16 05:04:38;;;;;;;;;;;10.10;92.50;;;;;;4979279;28;20368;-75
2022/04/16 05:07:07;;;;;;;;;;;10.00;92.50;;;;;;4992937;28;20335;-74
2022/04/16 05:09:34;;;;;;;;;;;10.00;92.50;;;;;;4981350;28;19944;-74
2022/04/16 05:12:01;;;;;;;;;;;10.00;92.50;;;;;;4978580;28;19933;-75
2022/04/16 05:14:30;;;;;;;;;;;10.00;92.50;;;;;;4982774;28;20330;-74
2022/04/16 05:16:57;;;;;;;;;;;9.90;92.90;;;;;;4986938;28;20422;-74
2022/04/16 05:19:29;;;;;;;;;;;9.90;93.00;;;;;;4983066;28;19926;-74
2022/04/16 05:21:56;;;;;;;;;;;9.90;93.00;;;;;;4979254;28;20300;-74
2022/04/16 05:24:23;;;;;;;;;;;9.90;93.10;;;;;;4983989;28;19926;-75
2022/04/16 05:26:50;;;;;;;;;;;9.90;93.10;;;;;;4976581;28;19977;-75
2022/04/16 05:29:17;;;;;;;;;;;9.90;93.20;;;;;;4987212;28;19926;-74
2022/04/16 05:31:44;;;;;;;;;;;9.80;93.10;;;;;;4978168;28;19929;-74
2022/04/16 05:34:20;;;;;;;;;;;9.80;93.10;;;;;;4988687;28;19926;-75
2022/04/16 05:36:49;;;;;;;;;;;9.80;93.10;;;;;;4998703;28;19933;-75
2022/04/16 05:39:16;;;;;;;;;;;9.80;93.20;;;;;;4988967;28;19930;-74
2022/04/16 05:41:43;;;;;;;;;;;9.80;93.20;;;;;;4982683;28;19972;-75
2022/04/16 05:44:10;;;;;;;;;;;9.70;93.20;;;;;;4973728;28;19925;-74
2022/04/16 05:46:37;;;;;;;;;;;9.70;93.40;;;;;;4987130;28;20392;-75
2022/04/16 05:49:04;;;;;;;;;;;9.70;93.40;;;;;;4983880;28;19948;-74
2022/04/16 05:51:31;;;;;;;;;;;9.70;93.40;;;;;;4981013;28;19926;-75
2022/04/16 05:54:01;;;;;;;;;;;9.70;93.50;;;;;;4985029;28;19932;-75
2022/04/16 05:56:28;;;;;;;;;;;9.70;93.50;;;;;;4975338;28;19926;-73
2022/04/16 05:58:55;;;;;;;;;;;9.70;93.70;;;;;;4981885;28;19926;-75
2022/04/16 06:01:23;;;;;;;;;;;9.70;93.70;;;;;;4977770;28;19926;-73
2022/04/16 06:03:49;;;;;;;;;;;9.70;93.70;;;;;;4978759;28;19936;-74
2022/04/16 06:06:16;;;;;;;;;;;9.70;93.70;;;;;;4981710;28;20069;-74
2022/04/16 06:08:43;;;;;;;;;;;9.60;93.70;;;;;;4990938;28;19933;-75
2022/04/16 06:11:12;;;;;;;;;;;9.60;93.80;;;;;;4984491;28;20308;-75
2022/04/16 06:13:39;;;;;;;;;;;9.60;93.90;;;;;;4988233;28;19969;-75
2022/04/16 06:16:08;;;;;;;;;;;9.60;94.00;;;;;;4983535;28;20632;-75
2022/04/16 06:18:35;;;;;;;;;;;9.60;94.10;;;;;;4981420;28;19952;-74
2022/04/16 06:21:02;;;;;;;;;;;9.60;94.10;;;;;;4985889;28;19933;-75
2022/04/16 06:23:31;;;;;;;;;;;9.60;94.20;;;;;;4985086;28;19926;-74
2022/04/16 06:25:58;;;;;;;;;;;9.60;94.20;;;;;;4983291;28;20045;-75
2022/04/16 06:28:26;;;;;;;;;;;9.60;94.10;;;;;;4983313;28;19960;-74
2022/04/16 06:30:53;;;;;;;;;;;9.60;94.40;;;;;;4992385;28;19945;-73
2022/04/16 06:33:20;;;;;;;;;;;9.60;94.50;;;;;;4987840;28;19936;-75
2022/04/16 06:35:47;;;;;;;;;;;9.60;94.40;;;;;;4976834;28;20365;-74
2022/04/16 06:38:14;;;;;;;;;;;9.60;94.50;;;;;;4990630;28;20336;-75
2022/04/16 06:40:41;;;;;;;;;;;9.60;94.40;;;;;;4978783;28;19980;-74
2022/04/16 06:43:08;;;;;;;;;;;9.60;94.70;;;;;;5001391;23;19956;-78
2022/04/16 06:45:36;;;;;;;;;;;9.60;94.60;;;;;;5012373;28;19969;-79
2022/04/16 06:48:03;;;;;;;;;;;9.60;94.60;;;;;;5015092;28;19940;-79
2022/04/16 06:50:30;;;;;;;;;;;9.60;94.50;;;;;;4998669;28;20072;-79
2022/04/16 06:52:57;;;;;;;;;;;9.60;94.60;;;;;;4993795;28;19945;-80
2022/04/16 06:55:24;;;;;;;;;;;9.60;94.60;;;;;;4994098;28;19953;-80
2022/04/16 06:57:51;;;;;;;;;;;9.60;94.40;;;;;;4990284;28;19941;-79
2022/04/16 07:00:18;;;;;;;;;;;9.60;94.60;;;;;;5011783;28;19926;-79
2022/04/16 07:02:46;;;;;;;;;;;9.60;94.80;;;;;;4995370;28;19933;-79
2022/04/16 07:05:13;;;;;;;;;;;9.60;94.40;;;;;;4986649;28;19940;-80
2022/04/16 07:07:40;;;;;;;;;;;9.60;94.70;;;;;;4995404;28;19954;-82
2022/04/16 07:10:07;;;;;;;;;;;9.60;94.60;;;;;;5014097;28;20301;-81
2022/04/16 07:12:34;;;;;;;;;;;9.60;94.60;;;;;;4990870;28;19996;-81
2022/04/16 07:15:01;;;;;;;;;;;9.60;94.60;;;;;;4992399;28;20464;-81
2022/04/16 07:17:29;;;;;;;;;;;9.60;94.50;;;;;;4987234;28;20303;-82
2022/04/16 07:19:57;;;;;;;;;;;9.60;94.60;;;;;;4994650;28;20460;-82
2022/04/16 07:22:24;;;;;;;;;;;9.60;94.60;;;;;;4996637;28;19930;-81
2022/04/16 07:24:51;;;;;;;;;;;9.60;94.80;;;;;;5003921;28;20012;-81
2022/04/16 07:27:18;;;;;;;;;;;9.50;94.50;;;;;;4995990;28;20586;-84
2022/04/16 07:29:46;;;;;;;;;;;9.60;94.70;;;;;;4985730;28;19961;-83
2022/04/16 07:32:12;;;;;;;;;;;9.60;94.80;;;;;;5002275;28;19930;-84
2022/04/16 07:34:40;;;;;;;;;;;9.60;95.10;;;;;;4988304;28;19965;-84
2022/04/16 07:37:09;;;;;;;;;;;9.60;94.80;;;;;;4989105;28;20431;-83
2022/04/16 07:39:36;;;;;;;;;;;9.60;95.00;;;;;;4971694;28;20391;-82
2022/04/16 07:42:03;;;;;;;;;;;9.60;95.00;;;;;;4972840;28;21510;-80
2022/04/16 07:44:30;;;;;;;;;;;9.50;95.10;;;;;;4972631;28;20316;-80
2022/04/16 07:46:58;;;;;;;;;;;9.60;95.20;;;;;;4989302;28;19930;-80
2022/04/16 07:49:24;;;;;;;;;;;9.60;95.20;;;;;;5002496;28;19957;-81
2022/04/16 07:51:51;;;;;;;;;;;9.60;95.10;;;;;;4983938;28;19937;-80
2022/04/16 07:54:20;;;;;;;;;;;9.60;95.20;;;;;;4989533;28;19930;-80
2022/04/16 07:56:46;;;;;;;;;;;9.60;95.40;;;;;;4994141;28;20703;-80
2022/04/16 07:59:13;;;;;;;;;;;9.60;95.40;;;;;;4981133;28;19934;-80
2022/04/16 08:01:40;;;;;;;;;;;9.60;95.40;;;;;;4990092;28;19930;-80
2022/04/16 08:04:09;;;;;;;;;;;9.60;95.50;;;;;;4985229;28;19926;-80
2022/04/16 08:06:36;;;;;;;;;;;9.60;95.50;;;;;;5001249;28;19956;-80
2022/04/16 08:09:03;;;;;;;;;;;9.60;95.80;;;;;;4994906;28;19976;-80
2022/04/16 08:11:32;;;;;;;;;;;9.60;95.60;;;;;;5006421;28;19932;-81
2022/04/16 08:14:00;;;;;;;;;;;9.60;95.60;;;;;;4997280;28;19926;-81
2022/04/16 08:16:27;;;;;;;;;;;9.60;95.60;;;;;;4988765;28;19934;-81
2022/04/16 08:18:54;;;;;;;;;;;9.60;95.60;;;;;;5003320;28;19934;-80
2022/04/16 08:21:21;;;;;;;;;;;9.60;95.70;;;;;;4994057;28;19929;-81
2022/04/16 08:23:57;;;;;;;;;;;9.60;95.60;;;;;;4995503;28;19972;-80
2022/04/16 08:26:25;;;;;;;;;;;9.60;95.70;;;;;;4996063;28;19933;-80
2022/04/16 08:28:54;;;;;;;;;;;9.60;95.70;;;;;;4983802;28;19930;-80
2022/04/16 08:31:21;;;;;;;;;;;9.60;95.80;;;;;;4977764;28;19980;-80
2022/04/16 08:33:49;;;;;;;;;;;9.60;95.70;;;;;;4979407;28;20431;-79
2022/04/16 08:36:16;;;;;;;;;;;9.60;95.80;;;;;;4972941;28;19937;-77
2022/04/16 08:38:42;;;;;;;;;;;9.60;95.80;;;;;;4975078;28;19940;-80
2022/04/16 08:41:10;;;;;;;;;;;9.60;95.80;;;;;;4974410;28;19961;-79
2022/04/16 08:43:38;;;;;;;;;;;9.60;95.80;;;;;;4975360;28;19961;-77
2022/04/16 08:46:06;;;;;;;;;;;9.60;95.80;;;;;;4974947;28;20370;-79
2022/04/16 08:48:33;;;;;;;;;;;9.60;95.90;;;;;;4980082;28;19926;-81
2022/04/16 08:51:00;;;;;;;;;;;9.60;95.90;;;;;;4976485;28;19961;-78
2022/04/16 08:53:27;;;;;;;;;;;9.60;96.00;;;;;;4982099;28;19957;-82
2022/04/16 08:55:54;;;;;;;;;;;9.60;95.90;;;;;;4984115;28;19926;-80
2022/04/16 08:58:21;;;;;;;;;;;9.60;95.90;;;;;;4978368;28;19937;-78
2022/04/16 09:00:48;;;;;;;;;;;9.60;96.00;;;;;;4986955;28;20877;-80
2022/04/16 09:03:16;;;;;;;;;;;9.60;96.00;;;;;;4982724;28;19937;-83
2022/04/16 09:05:45;;;;;;;;;;;9.60;96.20;;;;;;4998526;28;19925;-82
2022/04/16 09:08:12;;;;;;;;;;;9.60;96.30;;;;;;4984233;28;19930;-82
2022/04/16 09:10:41;;;;;;;;;;;9.60;96.30;;;;;;4983881;28;19930;-80
2022/04/16 09:13:08;;;;;;;;;;;9.60;96.30;;;;;;4979679;28;19934;-80
2022/04/16 09:15:35;;;;;;;;;;;9.60;96.30;;;;;;4980483;28;19977;-80
2022/04/16 09:18:03;;;;;;;;;;;9.60;96.30;;;;;;4982628;28;19930;-78
2022/04/16 09:20:34;;;;;;;;;;;9.60;96.30;;;;;;4985543;28;20458;-80
2022/04/16 09:23:02;;;;;;;;;;;9.60;96.20;;;;;;4983285;28;20361;-80
2022/04/16 09:25:30;;;;;;;;;;;9.60;96.20;;;;;;4987999;28;20419;-81
2022/04/16 09:27:58;;;;;;;;;;;9.60;96.20;;;;;;4976493;28;19934;-82
2022/04/16 09:30:25;;;;;;;;;;;9.60;96.20;;;;;;4984341;28;20391;-81
2022/04/16 09:32:55;;;;;;;;;;;9.60;96.10;;;;;;4988033;28;19933;-84
2022/04/16 09:35:27;;;;;;;;;;;9.60;96.20;;;;;;4982364;28;19929;-83
2022/04/16 09:37:56;;;;;;;;;;;9.60;96.20;;;;;;4974718;28;19956;-79
2022/04/16 09:40:27;;;;;;;;;;;9.60;96.20;;;;;;4981888;28;19929;-84
2022/04/16 09:42:55;;;;;;;;;;;9.60;96.20;;;;;;4982582;28;19926;-86
2022/04/16 09:45:22;;;;;;;;;;;9.60;96.20;;;;;;4981611;28;19952;-83
2022/04/16 09:47:51;;;;;;;;;;;9.60;96.20;;;;;;4975458;28;19944;-84
2022/04/16 09:50:18;;;;;;;;;;;9.60;96.20;;;;;;4978498;28;19933;-85
2022/04/16 09:52:46;;;;;;;;;;;9.60;96.30;;;;;;4988371;28;20406;-85
2022/04/16 09:55:15;;;;;;;;;;;9.60;96.50;;;;;;4974381;28;20033;-83
2022/04/16 09:57:42;;;;;;;;;;;9.60;96.50;;;;;;4983151;28;20184;-83
2022/04/16 10:00:10;;;;;;;;;;;9.60;96.60;;;;;;4972365;28;19933;-84
2022/04/16 10:02:41;;;;;;;;;;;9.50;96.70;;;;;;4984972;28;19930;-83
2022/04/16 10:05:09;;;;;;;;;;;9.60;96.70;;;;;;4990055;28;19926;-83
2022/04/16 10:07:37;;;;;;;;;;;9.60;96.70;;;;;;4995189;28;19926;-84
2022/04/16 10:10:17;;;;;;;;;;;9.60;96.70;;;;;;4999130;28;20025;-85
2022/04/16 10:13:03;;;;;;;;;;;9.60;96.90;;;;;;4984276;28;20411;-87
2022/04/16 10:15:39;;;;;;;;;;;9.60;96.70;;;;;;5000486;28;19949;-85
2022/04/16 10:18:06;;;;;;;;;;;9.60;96.60;;;;;;4986119;28;19930;-81
2022/04/16 10:20:33;;;;;;;;;;;9.70;97.00;;;;;;4988662;28;19936;-87
2022/04/16 10:23:03;;;;;;;;;;;9.70;96.90;;;;;;4986713;28;19930;-85
2022/04/16 10:25:32;;;;;;;;;;;9.70;96.90;;;;;;4985406;28;20028;-83
2022/04/16 10:28:06;;;;;;;;;;;9.70;96.90;;;;;;4988758;28;19944;-84
2022/04/16 10:30:36;;;;;;;;;;;9.70;96.80;;;;;;4992657;28;20300;-79
2022/04/16 10:33:05;;;;;;;;;;;9.70;96.80;;;;;;4970656;28;19945;-83
2022/04/16 10:35:32;;;;;;;;;;;9.70;96.70;;;;;;4972732;28;20316;-90
2022/04/16 10:37:59;;;;;;;;;;;9.70;96.80;;;;;;4964326;28;20418;-88
2022/04/16 10:40:26;;;;;;;;;;;9.70;96.70;;;;;;4978985;28;19925;-87
2022/04/16 10:42:58;;;;;;;;;;;9.70;96.60;;;;;;4966873;28;19948;-89
2022/04/16 10:45:27;;;;;;;;;;;9.70;96.70;;;;;;4979857;28;19930;-86
2022/04/16 10:47:54;;;;;;;;;;;9.70;96.60;;;;;;4988605;28;19934;-91
2022/04/16 10:50:22;;;;;;;;;;;9.80;96.70;;;;;;4980339;28;19933;-89
2022/04/16 10:52:53;;;;;;;;;;;9.80;96.70;;;;;;4988213;28;20146;-85
2022/04/16 10:55:24;;;;;;;;;;;9.80;96.90;;;;;;4984000;28;19934;-88
2022/04/16 10:57:58;;;;;;;;;;;9.80;96.70;;;;;;4974601;28;19926;-87
2022/04/16 11:00:37;;;;;;;;;;;9.80;96.80;;;;;;4978275;28;19933;-84
2022/04/16 11:03:11;;;;;;;;;;;9.80;96.70;;;;;;4979846;28;19941;-87
2022/04/16 11:05:41;;;;;;;;;;;9.80;96.70;;;;;;4975346;28;20398;-86
2022/04/16 11:08:08;;;;;;;;;;;9.80;96.70;;;;;;4984477;28;20396;-83
2022/04/16 11:10:35;;;;;;;;;;;9.90;96.80;;;;;;4981456;28;19941;-85
2022/04/16 11:13:03;;;;;;;;;;;9.90;96.70;;;;;;4982338;28;19933;-83
2022/04/16 11:15:30;;;;;;;;;;;9.90;96.70;;;;;;4982826;28;19934;-84
2022/04/16 11:17:59;;;;;;;;;;;9.90;96.70;;;;;;4976854;28;20017;-80
2022/04/16 11:20:27;;;;;;;;;;;9.90;96.70;;;;;;4978967;28;20368;-83
2022/04/16 11:22:54;;;;;;;;;;;9.90;96.70;;;;;;4982241;28;21863;-83
2022/04/16 11:25:22;;;;;;;;;;;9.90;96.80;;;;;;4978605;28;19926;-84
2022/04/16 11:36:16;;;;;;;;;;;10.00;96.30;;;;;;4973001;28;19926;-84
2022/04/16 11:38:44;;;;;;;;;;;10.00;96.20;;;;;;4974190;28;19934;-84
2022/04/16 11:41:12;;;;;;;;;;;10.00;96.20;;;;;;4973724;28;20431;-84
2022/04/16 11:43:46;;;;;;;;;;;10.10;96.30;;;;;;4977080;28;20029;-83
2022/04/16 11:46:14;;;;;;;;;;;10.10;96.30;;;;;;4972889;28;19941;-82
2022/04/16 11:48:45;;;;;;;;;;;10.10;96.40;;;;;;4969583;28;19953;-77
2022/04/16 11:51:13;;;;;;;;;;;10.10;96.40;;;;;;4973286;28;20370;-78
2022/04/16 11:53:43;;;;;;;;;;;10.10;96.20;;;;;;4987645;28;20019;-78
2022/04/16 11:56:10;;;;;;;;;;;10.00;96.30;;;;;;4974365;28;20315;-80
2022/04/16 11:58:37;;;;;;;;;;;10.00;96.30;;;;;;4976467;28;19926;-80
2022/04/16 12:01:06;;;;;;;;;;;10.00;96.00;;;;;;4979728;28;20161;-81
2022/04/16 12:03:37;;;;;;;;;;;10.10;96.40;;;;;;4979743;28;19929;-80
2022/04/16 12:06:09;;;;;;;;;;;10.10;96.40;;;;;;4982686;28;19926;-84
2022/04/16 12:08:37;;;;;;;;;;;10.10;96.00;;;;;;4984140;28;19932;-80
2022/04/16 12:11:04;;;;;;;;;;;10.10;96.10;;;;;;4984359;28;19942;-84
2022/04/16 12:13:34;;;;;;;;;;;10.20;96.70;;;;;;4985859;28;19969;-83
2022/04/16 12:16:04;;;;;;;;;;;10.30;96.10;;;;;;4983882;28;20357;-84
2022/04/16 12:18:35;;;;;;;;;;;10.30;96.30;;;;;;4998455;28;20439;-84
2022/04/16 12:21:06;;;;;;;;;;;10.40;96.40;;;;;;4986301;28;19933;-86
2022/04/16 12:23:34;;;;;;;;;;;10.30;96.20;;;;;;4984003;28;19934;-83
2022/04/16 12:26:05;;;;;;;;;;;10.20;96.50;;;;;;4990295;28;19930;-83
2022/04/16 12:28:33;;;;;;;;;;;10.10;96.40;;;;;;4995354;28;19969;-84
2022/04/16 12:31:00;;;;;;;;;;;10.20;96.50;;;;;;4991667;28;20407;-83
2022/04/16 12:33:27;;;;;;;;;;;10.30;96.80;;;;;;4991369;28;19932;-83
2022/04/16 12:35:56;;;;;;;;;;;10.40;96.80;;;;;;4974428;28;19929;-83
2022/04/16 12:38:24;;;;;;;;;;;10.50;96.90;;;;;;4968377;28;19926;-85
2022/04/16 12:41:03;;;;;;;;;;;10.60;96.40;;;;;;4983743;28;19964;-85
2022/04/16 12:43:31;;;;;;;;;;;10.40;96.00;;;;;;5063880;23;19934;-77
2022/04/16 12:45:58;;;;;;;;;;;10.30;95.80;;;;;;4978722;28;19969;-78
2022/04/16 12:48:25;;;;;;;;;;;10.40;96.00;;;;;;4976672;28;19989;-77
2022/04/16 12:50:52;;;;;;;;;;;10.40;95.80;;;;;;4982455;28;20005;-77
2022/04/16 12:53:21;;;;;;;;;;;10.40;95.70;;;;;;4978166;28;19934;-80
2022/04/16 12:55:49;;;;;;;;;;;10.40;95.80;;;;;;4976257;28;19957;-77
2022/04/16 12:58:17;;;;;;;;;;;10.30;95.20;;;;;;4979957;28;19926;-78
2022/04/16 13:00:46;;;;;;;;;;;10.40;95.30;;;;;;4975214;28;19926;-79
2022/04/16 13:03:13;;;;;;;;;;;10.40;94.70;;;;;;4974685;28;19926;-79
2022/04/16 13:05:40;;;;;;;;;;;10.30;94.80;;;;;;4981380;28;19929;-77
2022/04/16 13:08:08;;;;;;;;;;;10.40;95.40;;;;;;4980472;28;19972;-80
2022/04/16 13:10:35;;;;;;;;;;;10.60;95.30;;;;;;4980056;28;19930;-77
2022/04/16 13:13:04;;;;;;;;;;;10.60;94.40;;;;;;4992268;28;20309;-77
2022/04/16 13:15:33;;;;;;;;;;;10.70;94.70;;;;;;4970080;28;19930;-77
2022/04/16 13:18:03;;;;;;;;;;;10.80;94.40;;;;;;4977653;28;20436;-78
2022/04/16 13:20:30;;;;;;;;;;;10.60;93.50;;;;;;4974615;28;19961;-80
2022/04/16 13:22:57;;;;;;;;;;;10.40;93.70;;;;;;4975080;28;19932;-77
2022/04/16 13:25:25;;;;;;;;;;;10.40;93.30;;;;;;4972657;28;20025;-78
2022/04/16 13:27:52;;;;;;;;;;;10.60;93.80;;;;;;4955894;28;19944;-78
2022/04/16 13:30:19;;;;;;;;;;;10.70;93.00;;;;;;4951668;28;20767;-77
2022/04/16 13:32:48;;;;;;;;;;;10.70;93.10;;;;;;4950904;28;19930;-76
2022/04/16 13:35:15;;;;;;;;;;;10.90;93.80;;;;;;4975678;28;19937;-75
2022/04/16 13:37:42;;;;;;;;;;;11.00;94.10;;;;;;4971717;28;20315;-75
2022/04/16 13:42:54;;;;;;;;;;;11.20;94.30;;;;;;4972769;28;20004;-76
2022/04/16 13:45:21;;;;;;;;;;;11.30;94.10;;;;;;4987680;28;19992;-76
2022/04/16 13:47:49;;;;;;;;;;;11.50;94.00;;;;;;4977586;28;20316;-75
2022/04/16 13:50:16;;;;;;;;;;;11.70;94.20;;;;;;4980367;28;20005;-76
2022/04/16 13:52:43;;;;;;;;;;;12.00;94.40;;;;;;4977663;28;19981;-78
2022/04/16 13:55:10;;;;;;;;;;;12.10;93.10;;;;;;4977578;28;19970;-75
2022/04/16 13:57:37;;;;;;;;;;;12.10;93.00;;;;;;4982552;28;19925;-75
2022/04/16 14:00:04;;;;;;;;;;;12.00;93.50;;;;;;4978954;28;19965;-78
2022/04/16 14:02:38;;;;;;;;;;;11.80;92.10;;;;;;4968142;28;19925;-75
2022/04/16 14:07:51;;;;;;;;;;;11.80;93.00;;;;;;4970540;28;20520;-76
2022/04/16 14:10:18;;;;;;;;;;;11.80;92.00;;;;;;4972122;28;19972;-77
2022/04/16 14:12:45;;;;;;;;;;;11.70;92.30;;;;;;4970458;28;19953;-76
2022/04/16 14:15:13;;;;;;;;;;;11.70;92.90;;;;;;4967586;28;19926;-76
2022/04/16 14:17:39;;;;;;;;;;;11.70;92.00;;;;;;4970051;28;19925;-76
2022/04/16 14:20:11;;;;;;;;;;;11.70;92.30;;;;;;4970515;28;19926;-76
2022/04/16 14:22:38;;;;;;;;;;;11.80;92.20;;;;;;4974147;28;19992;-76
2022/04/16 14:25:05;;;;;;;;;;;11.90;92.20;;;;;;4978558;28;20200;-76
2022/04/16 14:27:32;;;;;;;;;;;11.90;91.20;;;;;;4980874;28;20347;-76
2022/04/16 14:29:59;;;;;;;;;;;12.00;91.80;;;;;;4988956;28;19926;-77
2022/04/16 14:32:27;;;;;;;;;;;12.10;91.40;;;;;;4981933;28;19998;-77
2022/04/16 14:34:55;;;;;;;;;;;12.20;91.70;;;;;;4978157;28;19929;-76
2022/04/16 14:37:23;;;;;;;;;;;12.30;91.50;;;;;;4977180;28;19948;-77
2022/04/16 14:39:50;;;;;;;;;;;12.30;91.30;;;;;;4974145;28;20012;-77
2022/04/16 14:42:17;;;;;;;;;;;12.40;91.30;;;;;;4981836;28;19940;-76
2022/04/16 14:44:47;;;;;;;;;;;12.30;90.90;;;;;;4977110;28;20277;-76
2022/04/16 14:47:14;;;;;;;;;;;12.20;90.10;;;;;;4971091;28;19936;-77
2022/04/16 14:49:41;;;;;;;;;;;12.20;91.00;;;;;;4975817;28;19953;-77
2022/04/16 14:52:08;;;;;;;;;;;12.20;90.00;;;;;;4978180;28;19929;-77
2022/04/16 14:54:36;;;;;;;;;;;12.20;90.50;;;;;;4980120;28;19930;-76